sensor_id;sensor_type;location;lat;lon;timestamp;P1;durP1;ratioP1;P2;durP2;ratioP2
81903;SDS011;71370;-33.792;151.032;2023-09-30T00:00:37;7.10;;;4.50;;
81903;SDS011;71370;-33.792;151.032;2023-09-30T00:01:44;5.60;;;4.40;;
81903;SDS011;71370;-33.792;151.032;2023-09-30T00:02:52;6.20;;;4.00;;
81903;SDS011;71370;-33.792;151.032;2023-09-30T00:03:59;6.50;;;4.10;;
81903;SDS011;71370;-33.792;151.032;2023-09-30T00:05:07;6.10;;;4.30;;
81903;SDS011;71370;-33.792;151.032;2023-09-30T00:06:15;6.60;;;4.60;;
81903;SDS011;71370;-33.792;151.032;2023-09-30T00:07:23;7.00;;;4.60;;
81903;SDS011;71370;-33.792;151.032;2023-09-30T00:08:30;7.50;;;4.20;;
81903;SDS011;71370;-33.792;151.032;2023-09-30T00:09:37;6.50;;;4.30;;
81903;SDS011;71370;-33.792;151.032;2023-09-30T00:10:45;6.90;;;4.50;;
81903;SDS011;71370;-33.792;151.032;2023-09-30T00:11:53;6.50;;;4.60;;
81903;SDS011;71370;-33.792;151.032;2023-09-30T00:13:01;6.40;;;4.50;;
81903;SDS011;71370;-33.792;151.032;2023-09-30T00:14:08;6.00;;;4.10;;
81903;SDS011;71370;-33.792;151.032;2023-09-30T00:15:15;6.90;;;4.90;;
81903;SDS011;71370;-33.792;151.032;2023-09-30T00:16:22;7.00;;;5.00;;
81903;SDS011;71370;-33.792;151.032;2023-09-30T00:17:29;7.10;;;4.80;;
81903;SDS011;71370;-33.792;151.032;2023-09-30T00:18:36;7.10;;;4.80;;
81903;SDS011;71370;-33.792;151.032;2023-09-30T00:19:43;7.10;;;4.80;;
81903;SDS011;71370;-33.792;151.032;2023-09-30T00:20:50;8.00;;;5.20;;
81903;SDS011;71370;-33.792;151.032;2023-09-30T00:21:57;7.00;;;4.60;;
81903;SDS011;71370;-33.792;151.032;2023-09-30T00:23:05;6.30;;;4.90;;
81903;SDS011;71370;-33.792;151.032;2023-09-30T00:24:13;7.40;;;5.40;;
81903;SDS011;71370;-33.792;151.032;2023-09-30T00:25:20;6.20;;;4.90;;
81903;SDS011;71370;-33.792;151.032;2023-09-30T00:26:27;6.70;;;4.80;;
81903;SDS011;71370;-33.792;151.032;2023-09-30T00:27:34;6.40;;;4.60;;
81903;SDS011;71370;-33.792;151.032;2023-09-30T00:28:41;7.20;;;4.70;;
81903;SDS011;71370;-33.792;151.032;2023-09-30T00:29:48;6.00;;;4.20;;
81903;SDS011;71370;-33.792;151.032;2023-09-30T00:30:55;6.60;;;5.10;;
81903;SDS011;71370;-33.792;151.032;2023-09-30T00:32:03;6.80;;;4.40;;
81903;SDS011;71370;-33.792;151.032;2023-09-30T00:33:10;7.50;;;5.10;;
81903;SDS011;71370;-33.792;151.032;2023-09-30T00:34:17;5.40;;;4.40;;
81903;SDS011;71370;-33.792;151.032;2023-09-30T00:35:24;6.50;;;4.90;;
81903;SDS011;71370;-33.792;151.032;2023-09-30T00:36:31;8.30;;;4.60;;
81903;SDS011;71370;-33.792;151.032;2023-09-30T00:37:38;7.30;;;4.90;;
81903;SDS011;71370;-33.792;151.032;2023-09-30T00:38:46;6.60;;;5.00;;
81903;SDS011;71370;-33.792;151.032;2023-09-30T00:39:53;8.00;;;6.20;;
81903;SDS011;71370;-33.792;151.032;2023-09-30T00:41:01;8.00;;;5.10;;
81903;SDS011;71370;-33.792;151.032;2023-09-30T00:42:08;7.20;;;5.80;;
81903;SDS011;71370;-33.792;151.032;2023-09-30T00:43:19;8.10;;;6.60;;
81903;SDS011;71370;-33.792;151.032;2023-09-30T00:44:26;7.20;;;5.50;;
81903;SDS011;71370;-33.792;151.032;2023-09-30T00:45:33;7.80;;;5.80;;
81903;SDS011;71370;-33.792;151.032;2023-09-30T00:46:44;6.40;;;4.90;;
81903;SDS011;71370;-33.792;151.032;2023-09-30T00:47:51;6.90;;;5.80;;
81903;SDS011;71370;-33.792;151.032;2023-09-30T00:48:59;6.70;;;5.90;;
81903;SDS011;71370;-33.792;151.032;2023-09-30T00:50:07;6.60;;;5.50;;
81903;SDS011;71370;-33.792;151.032;2023-09-30T00:51:16;7.80;;;5.50;;
81903;SDS011;71370;-33.792;151.032;2023-09-30T00:52:23;7.40;;;6.00;;
81903;SDS011;71370;-33.792;151.032;2023-09-30T00:53:31;7.50;;;6.60;;
81903;SDS011;71370;-33.792;151.032;2023-09-30T00:54:38;5.90;;;5.00;;
81903;SDS011;71370;-33.792;151.032;2023-09-30T00:55:45;6.90;;;6.20;;
81903;SDS011;71370;-33.792;151.032;2023-09-30T00:56:54;8.10;;;7.30;;
81903;SDS011;71370;-33.792;151.032;2023-09-30T00:58:01;6.80;;;5.50;;
81903;SDS011;71370;-33.792;151.032;2023-09-30T00:59:09;7.40;;;5.90;;
81903;SDS011;71370;-33.792;151.032;2023-09-30T01:00:16;8.30;;;7.10;;
81903;SDS011;71370;-33.792;151.032;2023-09-30T01:01:25;7.90;;;5.90;;
81903;SDS011;71370;-33.792;151.032;2023-09-30T01:02:32;7.30;;;5.80;;
81903;SDS011;71370;-33.792;151.032;2023-09-30T01:03:40;7.30;;;5.50;;
81903;SDS011;71370;-33.792;151.032;2023-09-30T01:04:47;7.60;;;6.10;;
81903;SDS011;71370;-33.792;151.032;2023-09-30T01:05:54;8.60;;;6.60;;
81903;SDS011;71370;-33.792;151.032;2023-09-30T01:07:02;7.60;;;6.10;;
81903;SDS011;71370;-33.792;151.032;2023-09-30T01:08:10;7.50;;;6.50;;
81903;SDS011;71370;-33.792;151.032;2023-09-30T01:09:18;7.40;;;5.90;;
81903;SDS011;71370;-33.792;151.032;2023-09-30T01:10:26;6.40;;;5.70;;
81903;SDS011;71370;-33.792;151.032;2023-09-30T01:11:33;7.90;;;6.50;;
81903;SDS011;71370;-33.792;151.032;2023-09-30T01:12:40;6.90;;;5.30;;
81903;SDS011;71370;-33.792;151.032;2023-09-30T01:13:48;6.70;;;5.60;;
81903;SDS011;71370;-33.792;151.032;2023-09-30T01:14:58;7.40;;;6.10;;
81903;SDS011;71370;-33.792;151.032;2023-09-30T01:16:10;9.60;;;6.60;;
81903;SDS011;71370;-33.792;151.032;2023-09-30T01:17:17;7.60;;;5.60;;
81903;SDS011;71370;-33.792;151.032;2023-09-30T01:18:24;8.50;;;6.30;;
81903;SDS011;71370;-33.792;151.032;2023-09-30T01:19:31;7.00;;;5.50;;
81903;SDS011;71370;-33.792;151.032;2023-09-30T01:20:38;7.40;;;5.40;;
81903;SDS011;71370;-33.792;151.032;2023-09-30T01:21:46;8.30;;;6.00;;
81903;SDS011;71370;-33.792;151.032;2023-09-30T01:22:56;7.50;;;5.20;;
81903;SDS011;71370;-33.792;151.032;2023-09-30T01:24:04;6.80;;;5.70;;
81903;SDS011;71370;-33.792;151.032;2023-09-30T01:25:11;6.70;;;6.10;;
81903;SDS011;71370;-33.792;151.032;2023-09-30T01:26:18;7.70;;;5.60;;
81903;SDS011;71370;-33.792;151.032;2023-09-30T01:27:25;6.30;;;5.50;;
81903;SDS011;71370;-33.792;151.032;2023-09-30T01:28:32;7.10;;;5.40;;
81903;SDS011;71370;-33.792;151.032;2023-09-30T01:29:39;6.80;;;5.20;;
81903;SDS011;71370;-33.792;151.032;2023-09-30T01:30:46;7.80;;;6.70;;
81903;SDS011;71370;-33.792;151.032;2023-09-30T01:31:53;7.40;;;5.60;;
81903;SDS011;71370;-33.792;151.032;2023-09-30T01:33:01;7.80;;;7.00;;
81903;SDS011;71370;-33.792;151.032;2023-09-30T01:34:08;7.20;;;5.70;;
81903;SDS011;71370;-33.792;151.032;2023-09-30T01:35:16;7.50;;;5.50;;
81903;SDS011;71370;-33.792;151.032;2023-09-30T01:36:23;6.80;;;5.90;;
81903;SDS011;71370;-33.792;151.032;2023-09-30T01:37:30;7.40;;;6.00;;
81903;SDS011;71370;-33.792;151.032;2023-09-30T01:38:38;6.70;;;5.60;;
81903;SDS011;71370;-33.792;151.032;2023-09-30T01:39:45;8.70;;;6.70;;
81903;SDS011;71370;-33.792;151.032;2023-09-30T01:40:52;7.20;;;5.60;;
81903;SDS011;71370;-33.792;151.032;2023-09-30T01:41:59;8.20;;;5.90;;
81903;SDS011;71370;-33.792;151.032;2023-09-30T01:43:06;7.10;;;5.90;;
81903;SDS011;71370;-33.792;151.032;2023-09-30T01:44:14;7.30;;;5.80;;
81903;SDS011;71370;-33.792;151.032;2023-09-30T01:45:21;8.30;;;7.50;;
81903;SDS011;71370;-33.792;151.032;2023-09-30T01:46:28;7.20;;;5.60;;
81903;SDS011;71370;-33.792;151.032;2023-09-30T01:47:35;6.60;;;5.50;;
81903;SDS011;71370;-33.792;151.032;2023-09-30T01:48:42;7.50;;;5.90;;
81903;SDS011;71370;-33.792;151.032;2023-09-30T01:49:49;7.20;;;5.70;;
81903;SDS011;71370;-33.792;151.032;2023-09-30T01:50:56;7.30;;;5.80;;
81903;SDS011;71370;-33.792;151.032;2023-09-30T01:52:03;7.60;;;6.50;;
81903;SDS011;71370;-33.792;151.032;2023-09-30T01:53:10;7.90;;;6.60;;
81903;SDS011;71370;-33.792;151.032;2023-09-30T01:54:17;7.40;;;5.90;;
81903;SDS011;71370;-33.792;151.032;2023-09-30T01:55:24;7.10;;;6.00;;
81903;SDS011;71370;-33.792;151.032;2023-09-30T01:56:32;8.00;;;7.20;;
81903;SDS011;71370;-33.792;151.032;2023-09-30T01:57:39;8.10;;;6.10;;
81903;SDS011;71370;-33.792;151.032;2023-09-30T01:58:46;7.70;;;5.80;;
81903;SDS011;71370;-33.792;151.032;2023-09-30T01:59:53;7.10;;;5.70;;
81903;SDS011;71370;-33.792;151.032;2023-09-30T02:01:03;6.50;;;5.20;;
81903;SDS011;71370;-33.792;151.032;2023-09-30T02:02:11;6.70;;;5.60;;
81903;SDS011;71370;-33.792;151.032;2023-09-30T02:03:18;7.30;;;6.00;;
81903;SDS011;71370;-33.792;151.032;2023-09-30T02:04:25;7.20;;;5.00;;
81903;SDS011;71370;-33.792;151.032;2023-09-30T02:05:32;7.40;;;6.20;;
81903;SDS011;71370;-33.792;151.032;2023-09-30T02:06:39;8.30;;;6.20;;
81903;SDS011;71370;-33.792;151.032;2023-09-30T02:07:46;8.20;;;4.60;;
81903;SDS011;71370;-33.792;151.032;2023-09-30T02:08:53;6.70;;;5.60;;
81903;SDS011;71370;-33.792;151.032;2023-09-30T02:10:00;7.50;;;6.40;;
81903;SDS011;71370;-33.792;151.032;2023-09-30T02:11:09;7.40;;;5.80;;
81903;SDS011;71370;-33.792;151.032;2023-09-30T02:12:16;8.60;;;7.20;;
81903;SDS011;71370;-33.792;151.032;2023-09-30T02:13:23;7.60;;;6.40;;
81903;SDS011;71370;-33.792;151.032;2023-09-30T02:14:30;7.80;;;5.80;;
81903;SDS011;71370;-33.792;151.032;2023-09-30T02:15:41;7.50;;;6.30;;
81903;SDS011;71370;-33.792;151.032;2023-09-30T02:16:48;6.80;;;5.30;;
81903;SDS011;71370;-33.792;151.032;2023-09-30T02:17:55;10.10;;;6.00;;
81903;SDS011;71370;-33.792;151.032;2023-09-30T02:19:02;7.50;;;5.90;;
81903;SDS011;71370;-33.792;151.032;2023-09-30T02:20:09;7.00;;;5.80;;
81903;SDS011;71370;-33.792;151.032;2023-09-30T02:21:21;8.00;;;7.20;;
81903;SDS011;71370;-33.792;151.032;2023-09-30T02:22:28;7.50;;;5.80;;
81903;SDS011;71370;-33.792;151.032;2023-09-30T02:23:35;8.80;;;6.10;;
81903;SDS011;71370;-33.792;151.032;2023-09-30T02:24:42;6.70;;;5.90;;
81903;SDS011;71370;-33.792;151.032;2023-09-30T02:25:49;7.90;;;6.90;;
81903;SDS011;71370;-33.792;151.032;2023-09-30T02:26:56;7.50;;;6.00;;
81903;SDS011;71370;-33.792;151.032;2023-09-30T02:28:04;7.60;;;6.30;;
81903;SDS011;71370;-33.792;151.032;2023-09-30T02:29:16;7.50;;;5.80;;
81903;SDS011;71370;-33.792;151.032;2023-09-30T02:30:23;6.30;;;5.00;;
81903;SDS011;71370;-33.792;151.032;2023-09-30T02:31:30;7.20;;;5.80;;
81903;SDS011;71370;-33.792;151.032;2023-09-30T02:32:38;6.80;;;5.10;;
81903;SDS011;71370;-33.792;151.032;2023-09-30T02:33:46;7.80;;;5.80;;
81903;SDS011;71370;-33.792;151.032;2023-09-30T02:34:53;8.20;;;6.20;;
81903;SDS011;71370;-33.792;151.032;2023-09-30T02:36:00;7.30;;;6.40;;
81903;SDS011;71370;-33.792;151.032;2023-09-30T02:37:11;8.30;;;6.60;;
81903;SDS011;71370;-33.792;151.032;2023-09-30T02:38:18;8.90;;;8.10;;
81903;SDS011;71370;-33.792;151.032;2023-09-30T02:39:26;8.00;;;6.50;;
81903;SDS011;71370;-33.792;151.032;2023-09-30T02:40:33;7.90;;;6.20;;
81903;SDS011;71370;-33.792;151.032;2023-09-30T02:41:40;7.50;;;5.80;;
81903;SDS011;71370;-33.792;151.032;2023-09-30T02:42:47;8.40;;;6.70;;
81903;SDS011;71370;-33.792;151.032;2023-09-30T02:43:54;7.80;;;6.10;;
81903;SDS011;71370;-33.792;151.032;2023-09-30T02:45:02;7.50;;;6.30;;
81903;SDS011;71370;-33.792;151.032;2023-09-30T02:46:10;7.00;;;6.00;;
81903;SDS011;71370;-33.792;151.032;2023-09-30T02:47:18;7.70;;;5.80;;
81903;SDS011;71370;-33.792;151.032;2023-09-30T02:48:25;8.20;;;7.30;;
81903;SDS011;71370;-33.792;151.032;2023-09-30T02:49:32;7.90;;;6.30;;
81903;SDS011;71370;-33.792;151.032;2023-09-30T02:50:42;7.80;;;5.90;;
81903;SDS011;71370;-33.792;151.032;2023-09-30T02:51:52;7.80;;;5.80;;
81903;SDS011;71370;-33.792;151.032;2023-09-30T02:53:00;6.80;;;5.70;;
81903;SDS011;71370;-33.792;151.032;2023-09-30T02:54:07;7.10;;;5.50;;
81903;SDS011;71370;-33.792;151.032;2023-09-30T02:55:14;7.60;;;5.40;;
81903;SDS011;71370;-33.792;151.032;2023-09-30T02:56:21;8.30;;;6.90;;
81903;SDS011;71370;-33.792;151.032;2023-09-30T02:57:29;7.30;;;5.90;;
81903;SDS011;71370;-33.792;151.032;2023-09-30T02:58:37;9.00;;;7.30;;
81903;SDS011;71370;-33.792;151.032;2023-09-30T02:59:46;8.50;;;6.80;;
81903;SDS011;71370;-33.792;151.032;2023-09-30T03:00:53;7.30;;;5.90;;
81903;SDS011;71370;-33.792;151.032;2023-09-30T03:02:00;7.10;;;5.90;;
81903;SDS011;71370;-33.792;151.032;2023-09-30T03:03:08;7.90;;;6.10;;
81903;SDS011;71370;-33.792;151.032;2023-09-30T03:04:15;8.20;;;7.30;;
81903;SDS011;71370;-33.792;151.032;2023-09-30T03:05:24;8.60;;;7.10;;
81903;SDS011;71370;-33.792;151.032;2023-09-30T03:06:36;7.90;;;6.10;;
81903;SDS011;71370;-33.792;151.032;2023-09-30T03:08:51;8.60;;;6.80;;
81903;SDS011;71370;-33.792;151.032;2023-09-30T03:09:58;7.10;;;6.20;;
81903;SDS011;71370;-33.792;151.032;2023-09-30T03:11:10;8.20;;;7.30;;
81903;SDS011;71370;-33.792;151.032;2023-09-30T03:12:18;8.30;;;5.90;;
81903;SDS011;71370;-33.792;151.032;2023-09-30T03:13:26;8.50;;;7.00;;
81903;SDS011;71370;-33.792;151.032;2023-09-30T03:14:33;8.20;;;6.90;;
81903;SDS011;71370;-33.792;151.032;2023-09-30T03:15:40;8.20;;;7.40;;
81903;SDS011;71370;-33.792;151.032;2023-09-30T03:16:47;7.50;;;6.50;;
81903;SDS011;71370;-33.792;151.032;2023-09-30T03:17:54;8.00;;;6.20;;
81903;SDS011;71370;-33.792;151.032;2023-09-30T03:19:01;7.00;;;5.10;;
81903;SDS011;71370;-33.792;151.032;2023-09-30T03:20:14;8.40;;;6.90;;
81903;SDS011;71370;-33.792;151.032;2023-09-30T03:21:25;8.00;;;5.70;;
81903;SDS011;71370;-33.792;151.032;2023-09-30T03:22:32;7.90;;;7.10;;
81903;SDS011;71370;-33.792;151.032;2023-09-30T03:23:39;9.50;;;8.40;;
81903;SDS011;71370;-33.792;151.032;2023-09-30T03:24:46;7.20;;;6.30;;
81903;SDS011;71370;-33.792;151.032;2023-09-30T03:25:55;8.80;;;6.70;;
81903;SDS011;71370;-33.792;151.032;2023-09-30T03:27:03;9.20;;;7.40;;
81903;SDS011;71370;-33.792;151.032;2023-09-30T03:28:10;6.70;;;6.00;;
81903;SDS011;71370;-33.792;151.032;2023-09-30T03:29:17;7.40;;;5.70;;
81903;SDS011;71370;-33.792;151.032;2023-09-30T03:30:24;7.10;;;6.30;;
81903;SDS011;71370;-33.792;151.032;2023-09-30T03:31:31;7.50;;;6.20;;
81903;SDS011;71370;-33.792;151.032;2023-09-30T03:32:38;8.60;;;6.20;;
81903;SDS011;71370;-33.792;151.032;2023-09-30T03:33:45;6.90;;;5.60;;
81903;SDS011;71370;-33.792;151.032;2023-09-30T03:34:53;6.70;;;5.20;;
81903;SDS011;71370;-33.792;151.032;2023-09-30T03:36:04;7.60;;;6.80;;
81903;SDS011;71370;-33.792;151.032;2023-09-30T03:37:15;7.10;;;5.70;;
81903;SDS011;71370;-33.792;151.032;2023-09-30T03:38:22;7.40;;;6.50;;
81903;SDS011;71370;-33.792;151.032;2023-09-30T03:39:29;7.50;;;6.60;;
81903;SDS011;71370;-33.792;151.032;2023-09-30T03:40:39;8.10;;;7.30;;
81903;SDS011;71370;-33.792;151.032;2023-09-30T03:41:56;7.90;;;7.10;;
81903;SDS011;71370;-33.792;151.032;2023-09-30T03:43:04;7.00;;;6.10;;
81903;SDS011;71370;-33.792;151.032;2023-09-30T03:44:12;7.90;;;7.10;;
81903;SDS011;71370;-33.792;151.032;2023-09-30T03:45:19;7.90;;;6.70;;
81903;SDS011;71370;-33.792;151.032;2023-09-30T03:46:26;8.40;;;7.10;;
81903;SDS011;71370;-33.792;151.032;2023-09-30T03:47:37;7.50;;;6.40;;
81903;SDS011;71370;-33.792;151.032;2023-09-30T03:48:44;7.70;;;6.50;;
81903;SDS011;71370;-33.792;151.032;2023-09-30T03:49:52;8.30;;;6.40;;
81903;SDS011;71370;-33.792;151.032;2023-09-30T03:51:07;7.60;;;6.40;;
81903;SDS011;71370;-33.792;151.032;2023-09-30T03:52:21;7.60;;;6.50;;
81903;SDS011;71370;-33.792;151.032;2023-09-30T03:53:31;6.70;;;6.00;;
81903;SDS011;71370;-33.792;151.032;2023-09-30T03:54:38;7.90;;;6.80;;
81903;SDS011;71370;-33.792;151.032;2023-09-30T03:55:47;6.60;;;5.40;;
81903;SDS011;71370;-33.792;151.032;2023-09-30T03:56:54;5.70;;;5.10;;
81903;SDS011;71370;-33.792;151.032;2023-09-30T03:58:01;6.70;;;5.90;;
81903;SDS011;71370;-33.792;151.032;2023-09-30T03:59:09;6.50;;;5.40;;
81903;SDS011;71370;-33.792;151.032;2023-09-30T04:00:16;8.50;;;7.10;;
81903;SDS011;71370;-33.792;151.032;2023-09-30T04:01:24;7.40;;;5.50;;
81903;SDS011;71370;-33.792;151.032;2023-09-30T04:02:33;5.90;;;4.70;;
81903;SDS011;71370;-33.792;151.032;2023-09-30T04:03:40;7.40;;;6.40;;
81903;SDS011;71370;-33.792;151.032;2023-09-30T04:04:49;6.00;;;5.10;;
81903;SDS011;71370;-33.792;151.032;2023-09-30T04:05:59;7.00;;;6.20;;
81903;SDS011;71370;-33.792;151.032;2023-09-30T04:07:08;6.50;;;4.60;;
81903;SDS011;71370;-33.792;151.032;2023-09-30T04:08:15;6.90;;;6.20;;
81903;SDS011;71370;-33.792;151.032;2023-09-30T04:09:23;6.90;;;5.40;;
81903;SDS011;71370;-33.792;151.032;2023-09-30T04:10:31;6.20;;;5.20;;
81903;SDS011;71370;-33.792;151.032;2023-09-30T04:11:38;7.00;;;6.30;;
81903;SDS011;71370;-33.792;151.032;2023-09-30T04:12:48;6.00;;;4.90;;
81903;SDS011;71370;-33.792;151.032;2023-09-30T04:13:55;5.60;;;4.40;;
81903;SDS011;71370;-33.792;151.032;2023-09-30T04:15:02;7.50;;;6.60;;
81903;SDS011;71370;-33.792;151.032;2023-09-30T04:16:10;5.70;;;4.40;;
81903;SDS011;71370;-33.792;151.032;2023-09-30T04:17:18;6.50;;;4.90;;
81903;SDS011;71370;-33.792;151.032;2023-09-30T04:18:27;6.00;;;5.10;;
81903;SDS011;71370;-33.792;151.032;2023-09-30T04:19:35;6.40;;;4.90;;
81903;SDS011;71370;-33.792;151.032;2023-09-30T04:20:42;7.60;;;6.00;;
81903;SDS011;71370;-33.792;151.032;2023-09-30T04:21:52;6.20;;;5.10;;
81903;SDS011;71370;-33.792;151.032;2023-09-30T04:22:59;7.20;;;6.10;;
81903;SDS011;71370;-33.792;151.032;2023-09-30T04:24:08;5.40;;;4.80;;
81903;SDS011;71370;-33.792;151.032;2023-09-30T04:25:15;4.80;;;3.80;;
81903;SDS011;71370;-33.792;151.032;2023-09-30T04:26:23;7.00;;;4.80;;
81903;SDS011;71370;-33.792;151.032;2023-09-30T04:27:31;6.20;;;4.20;;
81903;SDS011;71370;-33.792;151.032;2023-09-30T04:28:38;5.00;;;4.30;;
81903;SDS011;71370;-33.792;151.032;2023-09-30T04:29:45;5.50;;;4.40;;
81903;SDS011;71370;-33.792;151.032;2023-09-30T04:30:52;5.80;;;4.70;;
81903;SDS011;71370;-33.792;151.032;2023-09-30T04:31:59;6.30;;;5.70;;
81903;SDS011;71370;-33.792;151.032;2023-09-30T04:33:06;5.80;;;4.20;;
81903;SDS011;71370;-33.792;151.032;2023-09-30T04:34:13;5.50;;;4.10;;
81903;SDS011;71370;-33.792;151.032;2023-09-30T04:35:20;5.60;;;4.40;;
81903;SDS011;71370;-33.792;151.032;2023-09-30T04:36:27;5.80;;;4.60;;
81903;SDS011;71370;-33.792;151.032;2023-09-30T04:37:36;5.50;;;4.20;;
81903;SDS011;71370;-33.792;151.032;2023-09-30T04:38:44;6.20;;;4.30;;
81903;SDS011;71370;-33.792;151.032;2023-09-30T04:39:51;8.20;;;5.20;;
81903;SDS011;71370;-33.792;151.032;2023-09-30T04:40:59;6.20;;;4.90;;
81903;SDS011;71370;-33.792;151.032;2023-09-30T04:42:06;5.00;;;4.40;;
81903;SDS011;71370;-33.792;151.032;2023-09-30T04:43:17;6.60;;;5.10;;
81903;SDS011;71370;-33.792;151.032;2023-09-30T04:44:24;6.40;;;4.70;;
81903;SDS011;71370;-33.792;151.032;2023-09-30T04:45:33;4.90;;;4.00;;
81903;SDS011;71370;-33.792;151.032;2023-09-30T04:46:40;6.60;;;5.20;;
81903;SDS011;71370;-33.792;151.032;2023-09-30T04:49:04;7.10;;;5.10;;
81903;SDS011;71370;-33.792;151.032;2023-09-30T04:50:11;6.30;;;5.10;;
81903;SDS011;71370;-33.792;151.032;2023-09-30T04:51:21;8.10;;;5.30;;
81903;SDS011;71370;-33.792;151.032;2023-09-30T04:52:31;6.60;;;5.30;;
81903;SDS011;71370;-33.792;151.032;2023-09-30T04:53:38;6.50;;;4.80;;
81903;SDS011;71370;-33.792;151.032;2023-09-30T04:54:45;7.30;;;4.90;;
81903;SDS011;71370;-33.792;151.032;2023-09-30T04:55:52;6.30;;;5.10;;
81903;SDS011;71370;-33.792;151.032;2023-09-30T04:56:59;5.60;;;4.20;;
81903;SDS011;71370;-33.792;151.032;2023-09-30T04:58:06;6.40;;;4.60;;
81903;SDS011;71370;-33.792;151.032;2023-09-30T04:59:14;6.10;;;5.50;;
81903;SDS011;71370;-33.792;151.032;2023-09-30T05:00:22;6.10;;;4.90;;
81903;SDS011;71370;-33.792;151.032;2023-09-30T05:01:33;7.00;;;5.50;;
81903;SDS011;71370;-33.792;151.032;2023-09-30T05:02:40;6.40;;;5.60;;
81903;SDS011;71370;-33.792;151.032;2023-09-30T05:03:50;6.00;;;5.30;;
81903;SDS011;71370;-33.792;151.032;2023-09-30T05:04:57;6.40;;;4.70;;
81903;SDS011;71370;-33.792;151.032;2023-09-30T05:06:04;6.70;;;5.30;;
81903;SDS011;71370;-33.792;151.032;2023-09-30T05:07:13;9.40;;;5.00;;
81903;SDS011;71370;-33.792;151.032;2023-09-30T05:08:20;7.50;;;5.40;;
81903;SDS011;71370;-33.792;151.032;2023-09-30T05:09:28;6.70;;;5.10;;
81903;SDS011;71370;-33.792;151.032;2023-09-30T05:10:36;7.90;;;6.10;;
81903;SDS011;71370;-33.792;151.032;2023-09-30T05:11:44;7.90;;;5.40;;
81903;SDS011;71370;-33.792;151.032;2023-09-30T05:12:51;7.40;;;6.00;;
81903;SDS011;71370;-33.792;151.032;2023-09-30T05:13:59;6.80;;;4.20;;
81903;SDS011;71370;-33.792;151.032;2023-09-30T05:15:07;7.40;;;4.90;;
81903;SDS011;71370;-33.792;151.032;2023-09-30T05:16:14;7.60;;;4.80;;
81903;SDS011;71370;-33.792;151.032;2023-09-30T05:17:22;6.70;;;4.70;;
81903;SDS011;71370;-33.792;151.032;2023-09-30T05:18:29;6.00;;;4.90;;
81903;SDS011;71370;-33.792;151.032;2023-09-30T05:19:36;6.60;;;5.80;;
81903;SDS011;71370;-33.792;151.032;2023-09-30T05:20:43;6.70;;;5.10;;
81903;SDS011;71370;-33.792;151.032;2023-09-30T05:21:50;6.40;;;4.70;;
81903;SDS011;71370;-33.792;151.032;2023-09-30T05:22:58;6.50;;;5.00;;
81903;SDS011;71370;-33.792;151.032;2023-09-30T05:24:04;8.20;;;5.20;;
81903;SDS011;71370;-33.792;151.032;2023-09-30T05:25:13;6.70;;;5.00;;
81903;SDS011;71370;-33.792;151.032;2023-09-30T05:26:23;6.20;;;4.80;;
81903;SDS011;71370;-33.792;151.032;2023-09-30T05:27:30;6.70;;;5.10;;
81903;SDS011;71370;-33.792;151.032;2023-09-30T05:28:37;6.50;;;4.40;;
81903;SDS011;71370;-33.792;151.032;2023-09-30T05:29:45;6.40;;;4.80;;
81903;SDS011;71370;-33.792;151.032;2023-09-30T05:30:52;6.80;;;4.60;;
81903;SDS011;71370;-33.792;151.032;2023-09-30T05:31:59;6.80;;;3.80;;
81903;SDS011;71370;-33.792;151.032;2023-09-30T05:33:07;6.80;;;4.70;;
81903;SDS011;71370;-33.792;151.032;2023-09-30T05:34:18;6.10;;;4.60;;
81903;SDS011;71370;-33.792;151.032;2023-09-30T05:35:26;6.90;;;5.20;;
81903;SDS011;71370;-33.792;151.032;2023-09-30T05:36:34;6.00;;;4.50;;
81903;SDS011;71370;-33.792;151.032;2023-09-30T05:37:41;6.50;;;5.20;;
81903;SDS011;71370;-33.792;151.032;2023-09-30T05:38:50;7.90;;;6.70;;
81903;SDS011;71370;-33.792;151.032;2023-09-30T05:39:57;6.90;;;5.30;;
81903;SDS011;71370;-33.792;151.032;2023-09-30T05:41:05;7.30;;;5.10;;
81903;SDS011;71370;-33.792;151.032;2023-09-30T05:42:12;6.00;;;3.90;;
81903;SDS011;71370;-33.792;151.032;2023-09-30T05:43:20;7.10;;;4.30;;
81903;SDS011;71370;-33.792;151.032;2023-09-30T05:44:27;7.50;;;4.90;;
81903;SDS011;71370;-33.792;151.032;2023-09-30T05:45:35;6.70;;;4.50;;
81903;SDS011;71370;-33.792;151.032;2023-09-30T05:46:42;7.00;;;4.90;;
81903;SDS011;71370;-33.792;151.032;2023-09-30T05:47:49;7.50;;;5.00;;
81903;SDS011;71370;-33.792;151.032;2023-09-30T05:48:58;8.00;;;5.80;;
81903;SDS011;71370;-33.792;151.032;2023-09-30T05:50:06;7.90;;;4.50;;
81903;SDS011;71370;-33.792;151.032;2023-09-30T05:51:21;6.20;;;4.10;;
81903;SDS011;71370;-33.792;151.032;2023-09-30T05:52:28;5.60;;;4.10;;
81903;SDS011;71370;-33.792;151.032;2023-09-30T05:53:35;6.20;;;4.20;;
81903;SDS011;71370;-33.792;151.032;2023-09-30T05:54:44;7.20;;;4.30;;
81903;SDS011;71370;-33.792;151.032;2023-09-30T05:55:51;7.20;;;4.80;;
81903;SDS011;71370;-33.792;151.032;2023-09-30T05:56:58;5.30;;;3.80;;
81903;SDS011;71370;-33.792;151.032;2023-09-30T05:58:06;7.60;;;5.00;;
81903;SDS011;71370;-33.792;151.032;2023-09-30T05:59:14;7.10;;;5.30;;
81903;SDS011;71370;-33.792;151.032;2023-09-30T06:00:21;5.30;;;4.50;;
81903;SDS011;71370;-33.792;151.032;2023-09-30T06:01:40;6.70;;;4.00;;
81903;SDS011;71370;-33.792;151.032;2023-09-30T06:02:48;7.60;;;4.90;;
81903;SDS011;71370;-33.792;151.032;2023-09-30T06:03:57;5.80;;;4.40;;
81903;SDS011;71370;-33.792;151.032;2023-09-30T06:05:05;6.90;;;5.00;;
81903;SDS011;71370;-33.792;151.032;2023-09-30T06:06:13;7.00;;;4.70;;
81903;SDS011;71370;-33.792;151.032;2023-09-30T06:07:21;5.70;;;4.00;;
81903;SDS011;71370;-33.792;151.032;2023-09-30T06:08:28;8.40;;;5.50;;
81903;SDS011;71370;-33.792;151.032;2023-09-30T06:09:35;7.30;;;4.40;;
81903;SDS011;71370;-33.792;151.032;2023-09-30T06:10:43;7.90;;;5.00;;
81903;SDS011;71370;-33.792;151.032;2023-09-30T06:11:50;7.10;;;4.90;;
81903;SDS011;71370;-33.792;151.032;2023-09-30T06:12:57;7.30;;;4.70;;
81903;SDS011;71370;-33.792;151.032;2023-09-30T06:14:05;7.90;;;4.40;;
81903;SDS011;71370;-33.792;151.032;2023-09-30T06:15:13;6.50;;;5.10;;
81903;SDS011;71370;-33.792;151.032;2023-09-30T06:16:27;6.80;;;4.80;;
81903;SDS011;71370;-33.792;151.032;2023-09-30T06:17:37;6.60;;;4.50;;
81903;SDS011;71370;-33.792;151.032;2023-09-30T06:18:44;8.30;;;5.30;;
81903;SDS011;71370;-33.792;151.032;2023-09-30T06:19:51;5.80;;;4.30;;
81903;SDS011;71370;-33.792;151.032;2023-09-30T06:20:58;6.50;;;3.90;;
81903;SDS011;71370;-33.792;151.032;2023-09-30T06:22:05;6.80;;;4.70;;
81903;SDS011;71370;-33.792;151.032;2023-09-30T06:23:13;8.60;;;4.50;;
81903;SDS011;71370;-33.792;151.032;2023-09-30T06:24:21;6.50;;;4.70;;
81903;SDS011;71370;-33.792;151.032;2023-09-30T06:25:29;6.70;;;4.80;;
81903;SDS011;71370;-33.792;151.032;2023-09-30T06:26:38;7.00;;;5.10;;
81903;SDS011;71370;-33.792;151.032;2023-09-30T06:27:45;7.00;;;4.60;;
81903;SDS011;71370;-33.792;151.032;2023-09-30T06:28:54;6.30;;;4.80;;
81903;SDS011;71370;-33.792;151.032;2023-09-30T06:30:01;7.50;;;4.80;;
81903;SDS011;71370;-33.792;151.032;2023-09-30T06:31:10;7.10;;;4.90;;
81903;SDS011;71370;-33.792;151.032;2023-09-30T06:32:17;7.60;;;4.50;;
81903;SDS011;71370;-33.792;151.032;2023-09-30T06:33:24;8.00;;;4.70;;